Paseo de la Costa, Puerto Rico
Current Conditions -  °F | °C
As of 2:16 AM on Thursday 23 Oct 2014 (Local Time) from TJNR Reporting Station
Overcast Overcast  
Wind Chill: 78°   Ceiling: 5500
Heat Index: 81°   Visibility: 10mi
Dew Point: 74°   Wind: 7mph
Humidity: 87%   Direction: 170°S
Pressure: 29.95"   Gusts: NA
Location:  18.2667°N, 65.6476°W
Report Text: TJNR 230616Z AUTO 17006KT 10SM FEW016 BKN055 OVC070 26/23 A2995 RMK AO2 T02560233
Loading
Personal Weather Stations






























Interactive Weather Map
Tropical Storm Tracking
New forecast layout! Learn more

10-Day Weather Forecast

Advertisements
Track Severe Weather on mobile